Time;durP1;ratioP1;P1;durP2;ratioP2;P2;SDS_P1;SDS_P2;PMS_P1;PMS_P2;Temp;Humidity;BMP_temperature;BMP_pressure;BME280_temperature;BME280_humidity;BME280_pressure;Samples;Min_cycle;Max_cycle;Signal;HPM_P1;HPM_P2
2023/08/22 00:00:29;;;;;;;1.85;1.02;;;11.70;99.90;;;;;;5094508;28;20189;-73
2023/08/22 00:02:55;;;;;;;0.50;0.50;;;11.80;99.90;;;;;;5092921;28;20698;-72
2023/08/22 00:05:22;;;;;;;0.70;0.70;;;11.90;99.90;;;;;;5094398;28;20549;-71
2023/08/22 00:07:51;;;;;;;0.50;0.50;;;11.90;99.90;;;;;;5094624;28;20192;-71
2023/08/22 00:10:17;;;;;;;0.55;0.55;;;11.90;99.90;;;;;;5076350;28;20287;-71
2023/08/22 00:12:44;;;;;;;0.50;0.50;;;11.80;99.90;;;;;;5094512;28;20192;-71
2023/08/22 00:15:12;;;;;;;1.00;0.88;;;11.80;99.90;;;;;;5076240;28;20713;-72
2023/08/22 00:17:39;;;;;;;0.60;0.60;;;11.70;99.90;;;;;;5092143;28;20851;-72
2023/08/22 00:20:08;;;;;;;0.52;0.52;;;11.60;99.90;;;;;;5094370;28;20195;-73
2023/08/22 00:22:36;;;;;;;0.60;0.60;;;11.60;99.90;;;;;;5093035;28;20203;-72
2023/08/22 00:25:03;;;;;;;2.50;0.95;;;11.60;99.90;;;;;;5094071;28;20253;-73
2023/08/22 00:27:31;;;;;;;0.50;0.50;;;11.50;99.90;;;;;;5094315;28;20224;-72
2023/08/22 00:29:57;;;;;;;0.55;0.55;;;11.50;99.90;;;;;;5092414;28;20295;-70
2023/08/22 00:32:24;;;;;;;0.65;0.65;;;11.40;99.90;;;;;;5083298;28;20278;-71
2023/08/22 00:34:53;;;;;;;0.60;0.60;;;11.40;99.90;;;;;;5055913;28;20682;-71
2023/08/22 00:37:19;;;;;;;0.50;0.50;;;11.40;99.90;;;;;;5073607;28;20250;-72
2023/08/22 00:39:45;;;;;;;0.63;0.63;;;11.30;99.90;;;;;;5073674;28;20319;-71
2023/08/22 00:42:11;;;;;;;0.50;0.50;;;11.30;99.90;;;;;;5073747;28;20200;-71
2023/08/22 00:44:37;;;;;;;0.40;0.40;;;11.30;99.90;;;;;;5073482;28;20189;-72
2023/08/22 00:47:03;;;;;;;0.50;0.50;;;11.30;99.90;;;;;;5092918;28;20211;-72
2023/08/22 00:49:30;;;;;;;0.70;0.70;;;11.30;99.90;;;;;;5093768;28;20199;-71
2023/08/22 00:51:58;;;;;;;2.58;0.88;;;11.30;99.90;;;;;;5094021;28;20188;-71
2023/08/22 00:54:26;;;;;;;0.50;0.50;;;11.20;99.90;;;;;;5092185;28;20200;-72
2023/08/22 00:56:53;;;;;;;0.40;0.40;;;11.20;99.90;;;;;;5093519;28;20636;-71
2023/08/22 00:59:19;;;;;;;0.70;0.70;;;11.20;99.90;;;;;;5092200;28;20196;-72
2023/08/22 01:01:46;;;;;;;0.57;0.57;;;11.20;99.90;;;;;;5088291;28;20235;-71
2023/08/22 01:04:12;;;;;;;0.60;0.60;;;11.20;99.90;;;;;;5070488;28;20208;-74
2023/08/22 01:07:06;;;;;;;0.63;0.63;;;11.20;99.90;;;;;;5113665;28;20218;-75
2023/08/22 01:09:42;;;;;;;0.60;0.60;;;11.20;99.90;;;;;;5113595;28;20183;-74
2023/08/22 01:12:11;;;;;;;0.57;0.57;;;11.20;99.90;;;;;;5113871;28;20815;-75
2023/08/22 01:14:41;;;;;;;0.70;0.70;;;11.10;99.90;;;;;;5113532;28;20555;-74
2023/08/22 01:17:12;;;;;;;0.60;0.60;;;11.10;99.90;;;;;;5095304;28;20225;-74
2023/08/22 01:19:41;;;;;;;0.60;0.60;;;11.20;99.90;;;;;;5113632;28;20665;-75
2023/08/22 01:22:07;;;;;;;0.50;0.50;;;11.20;99.90;;;;;;5113241;28;20243;-75
2023/08/22 01:24:33;;;;;;;0.65;0.65;;;11.20;99.90;;;;;;5113225;28;20191;-75
2023/08/22 01:26:58;;;;;;;0.50;0.50;;;11.20;99.90;;;;;;5113364;28;20239;-75
2023/08/22 01:29:35;;;;;;;0.50;0.50;;;11.30;99.90;;;;;;5095035;28;20722;-75
2023/08/22 01:32:23;;;;;;;0.50;0.50;;;11.30;99.90;;;;;;5098262;28;20234;-75
2023/08/22 01:34:56;;;;;;;0.60;0.60;;;11.30;99.90;;;;;;5072876;28;20559;-75
2023/08/22 01:37:23;;;;;;;0.52;0.52;;;11.20;99.90;;;;;;5054216;28;20582;-75
2023/08/22 01:39:55;;;;;;;0.50;0.50;;;11.20;99.90;;;;;;5072704;28;20184;-75
2023/08/22 01:42:25;;;;;;;0.60;0.60;;;11.20;99.90;;;;;;5084326;28;20208;-75
2023/08/22 01:44:51;;;;;;;0.50;0.50;;;11.20;99.90;;;;;;5070880;28;20728;-75
2023/08/22 01:47:22;;;;;;;0.70;0.70;;;11.20;99.90;;;;;;5054643;28;20291;-76
2023/08/22 01:49:48;;;;;;;0.52;0.52;;;11.10;99.90;;;;;;5072588;28;20590;-74
2023/08/22 01:52:14;;;;;;;0.57;0.57;;;11.10;99.90;;;;;;5072720;28;20197;-74
2023/08/22 01:54:40;;;;;;;0.50;0.50;;;11.10;99.90;;;;;;5072287;28;20250;-75
2023/08/22 01:57:05;;;;;;;0.60;0.60;;;11.10;99.90;;;;;;5054177;28;20205;-75
2023/08/22 01:59:31;;;;;;;0.50;0.50;;;11.10;99.90;;;;;;5072062;28;20188;-75
2023/08/22 02:01:57;;;;;;;0.60;0.60;;;11.10;99.90;;;;;;5087416;28;20295;-74
2023/08/22 02:04:29;;;;;;;0.63;0.63;;;11.10;99.90;;;;;;5090953;28;20210;-74
2023/08/22 02:06:54;;;;;;;0.80;0.80;;;11.10;99.90;;;;;;5092421;28;20203;-73
2023/08/22 02:09:23;;;;;;;0.60;0.60;;;11.10;99.90;;;;;;5092105;28;20204;-75
2023/08/22 02:11:49;;;;;;;0.55;0.55;;;11.00;99.90;;;;;;5092490;28;20192;-74
2023/08/22 02:14:15;;;;;;;0.70;0.70;;;11.10;99.90;;;;;;5092569;28;20210;-74
2023/08/22 02:16:41;;;;;;;0.50;0.50;;;11.00;99.90;;;;;;5092294;28;20265;-74
2023/08/22 02:19:07;;;;;;;0.50;0.50;;;11.00;99.90;;;;;;5090946;28;20241;-74
2023/08/22 02:21:32;;;;;;;0.60;0.60;;;11.00;99.90;;;;;;5072725;28;20552;-74
2023/08/22 02:23:58;;;;;;;4.13;1.88;;;10.90;99.90;;;;;;5054095;28;20216;-75
2023/08/22 02:26:26;;;;;;;0.60;0.60;;;11.10;99.90;;;;;;5072094;28;20192;-74
2023/08/22 02:28:52;;;;;;;0.57;0.57;;;11.10;99.90;;;;;;5072185;28;20203;-73
2023/08/22 02:31:18;;;;;;;0.50;0.50;;;11.30;99.90;;;;;;5070531;28;20635;-74
2023/08/22 02:33:44;;;;;;;0.52;0.52;;;11.50;99.90;;;;;;5052170;28;20246;-75
2023/08/22 02:36:09;;;;;;;0.50;0.50;;;11.60;99.90;;;;;;5033587;28;20213;-74
2023/08/22 02:38:35;;;;;;;0.90;0.90;;;11.60;99.90;;;;;;5075266;28;20193;-74
2023/08/22 02:41:01;;;;;;;0.40;0.40;;;11.70;99.90;;;;;;5075929;28;20711;-74
2023/08/22 02:43:26;;;;;;;0.50;0.50;;;11.70;99.90;;;;;;5075914;28;20192;-73
2023/08/22 02:45:52;;;;;;;0.70;0.70;;;11.60;99.90;;;;;;5076221;28;20193;-74
2023/08/22 02:48:18;;;;;;;0.60;0.60;;;11.60;99.90;;;;;;5076043;28;20193;-75
2023/08/22 02:50:43;;;;;;;0.50;0.50;;;11.50;99.90;;;;;;5075919;28;20623;-75
2023/08/22 02:53:11;;;;;;;0.52;0.52;;;11.50;99.90;;;;;;5075855;28;20189;-75
2023/08/22 02:55:37;;;;;;;0.50;0.50;;;11.50;99.90;;;;;;5075670;28;20705;-75
2023/08/22 02:58:03;;;;;;;0.60;0.60;;;11.60;99.90;;;;;;5075668;28;20283;-75
2023/08/22 03:00:29;;;;;;;0.60;0.60;;;11.50;99.90;;;;;;5090784;28;20247;-74
2023/08/22 03:02:55;;;;;;;0.55;0.55;;;11.50;99.90;;;;;;5085014;28;20216;-75
2023/08/22 03:05:20;;;;;;;0.60;0.60;;;11.50;99.90;;;;;;5075869;28;20196;-74
2023/08/22 03:07:46;;;;;;;0.60;0.60;;;11.50;99.90;;;;;;5075816;28;20276;-75
2023/08/22 03:10:12;;;;;;;1.52;1.17;;;11.50;99.90;;;;;;5057575;28;20196;-74
2023/08/22 03:12:37;;;;;;;0.50;0.50;;;11.40;99.90;;;;;;5075534;28;20188;-74
2023/08/22 03:15:04;;;;;;;0.60;0.60;;;11.40;99.90;;;;;;5075534;28;20197;-74
2023/08/22 03:17:30;;;;;;;0.70;0.70;;;11.30;99.90;;;;;;5075225;28;20216;-75
2023/08/22 03:19:55;;;;;;;0.50;0.50;;;11.30;99.90;;;;;;5057675;28;20200;-74
2023/08/22 03:22:21;;;;;;;0.60;0.60;;;11.20;99.90;;;;;;5057230;28;20238;-75
2023/08/22 03:24:47;;;;;;;0.60;0.60;;;11.20;99.90;;;;;;5075387;28;20655;-75
2023/08/22 03:27:13;;;;;;;0.60;0.60;;;11.10;99.90;;;;;;5075857;28;20232;-74
2023/08/22 03:29:38;;;;;;;0.82;0.82;;;11.10;99.90;;;;;;5095009;28;20188;-73
2023/08/22 03:32:07;;;;;;;0.40;0.40;;;11.00;99.90;;;;;;5087122;28;20281;-73
2023/08/22 03:34:33;;;;;;;0.50;0.50;;;10.90;99.90;;;;;;5084188;28;20686;-73
2023/08/22 03:36:58;;;;;;;0.60;0.60;;;11.00;99.90;;;;;;5094956;28;20288;-73
2023/08/22 03:39:24;;;;;;;0.50;0.50;;;10.90;99.90;;;;;;5095057;28;20238;-72
2023/08/22 03:41:53;;;;;;;0.47;0.47;;;10.90;99.90;;;;;;5095244;28;20567;-72
2023/08/22 03:44:19;;;;;;;0.50;0.50;;;10.80;99.90;;;;;;5095178;28;20192;-72
2023/08/22 03:46:44;;;;;;;0.60;0.60;;;10.80;99.90;;;;;;5076938;28;20201;-72
2023/08/22 03:49:10;;;;;;;0.50;0.50;;;10.80;99.90;;;;;;5094861;28;20188;-72
2023/08/22 03:51:36;;;;;;;0.60;0.60;;;10.80;99.90;;;;;;5093714;28;20223;-73
2023/08/22 03:54:02;;;;;;;0.50;0.50;;;10.80;99.90;;;;;;5094993;28;20196;-73
2023/08/22 03:56:27;;;;;;;0.60;0.60;;;10.80;99.90;;;;;;5076366;28;20698;-74
2023/08/22 03:58:53;;;;;;;0.70;0.70;;;10.80;99.90;;;;;;5094972;28;20206;-73
2023/08/22 04:01:19;;;;;;;0.60;0.60;;;10.80;99.90;;;;;;5096747;28;20200;-73
2023/08/22 04:03:45;;;;;;;0.55;0.55;;;10.80;99.90;;;;;;5115213;28;20203;-73
2023/08/22 04:06:10;;;;;;;3.53;1.55;;;10.80;99.90;;;;;;5115095;28;20576;-74
2023/08/22 04:08:36;;;;;;;0.55;0.55;;;10.80;99.90;;;;;;5114932;28;20196;-74
2023/08/22 04:11:02;;;;;;;0.75;0.75;;;10.90;99.90;;;;;;5114998;28;20195;-74
2023/08/22 04:13:27;;;;;;;0.52;0.52;;;10.90;99.90;;;;;;5096558;28;20215;-74
2023/08/22 04:15:53;;;;;;;0.50;0.50;;;11.00;99.90;;;;;;5094613;28;20279;-74
2023/08/22 04:18:19;;;;;;;0.50;0.50;;;11.00;99.90;;;;;;5094562;28;20227;-74
2023/08/22 04:20:45;;;;;;;0.60;0.60;;;11.10;99.90;;;;;;5094619;28;20188;-75
2023/08/22 04:23:13;;;;;;;0.60;0.60;;;11.10;99.90;;;;;;5094659;28;20188;-75
2023/08/22 04:25:39;;;;;;;0.70;0.70;;;11.30;99.90;;;;;;5094225;28;20192;-75
2023/08/22 04:28:05;;;;;;;0.70;0.70;;;11.50;99.90;;;;;;5093017;28;20211;-74
2023/08/22 04:30:33;;;;;;;0.60;0.60;;;11.60;99.90;;;;;;5094012;28;20192;-75
2023/08/22 04:33:05;;;;;;;0.60;0.60;;;11.80;99.90;;;;;;5093877;28;20604;-73
2023/08/22 04:35:31;;;;;;;0.50;0.50;;;11.90;99.90;;;;;;5075527;28;20628;-74
2023/08/22 04:37:57;;;;;;;0.60;0.60;;;12.10;99.90;;;;;;5094156;28;20291;-75
2023/08/22 04:40:22;;;;;;;0.60;0.60;;;12.20;99.90;;;;;;5092813;28;20199;-75
2023/08/22 04:42:48;;;;;;;0.40;0.40;;;12.30;99.90;;;;;;5093834;28;20238;-74
2023/08/22 04:45:14;;;;;;;0.50;0.50;;;12.40;99.90;;;;;;5093880;28;20234;-74
2023/08/22 04:47:40;;;;;;;0.50;0.50;;;12.50;99.90;;;;;;5075331;28;20303;-74
2023/08/22 04:50:07;;;;;;;0.70;0.70;;;12.60;99.90;;;;;;5075381;28;20663;-74
2023/08/22 04:52:32;;;;;;;0.40;0.40;;;12.70;99.90;;;;;;5093546;28;20707;-75
2023/08/22 04:54:58;;;;;;;0.50;0.50;;;12.80;99.90;;;;;;5093924;28;20275;-74
2023/08/22 04:57:27;;;;;;;0.60;0.60;;;13.00;99.90;;;;;;5075326;28;20212;-75
2023/08/22 04:59:53;;;;;;;0.50;0.50;;;13.10;99.90;;;;;;5093550;28;20195;-75
2023/08/22 05:02:21;;;;;;;0.50;0.50;;;13.20;99.90;;;;;;5091436;28;20598;-75
2023/08/22 05:04:48;;;;;;;0.40;0.40;;;13.30;99.90;;;;;;5075284;28;20279;-74
2023/08/22 05:07:13;;;;;;;0.68;0.68;;;13.30;99.90;;;;;;5093704;28;20192;-73
2023/08/22 05:09:39;;;;;;;0.70;0.70;;;13.40;99.90;;;;;;5093221;28;20210;-74
2023/08/22 05:12:08;;;;;;;0.50;0.50;;;13.40;99.90;;;;;;5093407;28;20218;-75
2023/08/22 05:14:33;;;;;;;1.55;1.45;;;13.40;99.90;;;;;;5093223;28;20270;-75
2023/08/22 05:16:59;;;;;;;0.50;0.50;;;13.50;99.90;;;;;;5093285;28;20230;-75
2023/08/22 05:19:25;;;;;;;0.82;0.82;;;13.50;99.90;;;;;;5093332;28;20667;-74
2023/08/22 05:21:51;;;;;;;3.45;2.00;;;13.60;99.90;;;;;;5093170;28;20245;-73
2023/08/22 05:24:16;;;;;;;0.40;0.40;;;13.80;99.90;;;;;;5093573;28;20192;-73
2023/08/22 05:26:42;;;;;;;0.77;0.77;;;13.90;99.90;;;;;;5075055;28;20684;-74
2023/08/22 05:29:08;;;;;;;0.73;0.73;;;14.00;99.90;;;;;;5092978;28;20210;-74
2023/08/22 05:31:33;;;;;;;0.85;0.85;;;14.10;99.90;;;;;;5092636;28;20199;-74
2023/08/22 05:33:59;;;;;;;0.93;0.75;;;14.20;99.90;;;;;;5092994;28;20651;-74
2023/08/22 05:36:34;;;;;;;0.50;0.50;;;14.20;99.90;;;;;;5091418;28;20196;-74
2023/08/22 05:39:00;;;;;;;0.38;0.38;;;14.30;99.90;;;;;;5074576;28;20203;-73
2023/08/22 05:41:25;;;;;;;0.70;0.70;;;14.40;99.90;;;;;;5092741;28;20659;-74
2023/08/22 05:43:51;;;;;;;0.40;0.40;;;14.50;99.90;;;;;;5074670;28;20224;-74
2023/08/22 05:46:22;;;;;;;0.52;0.52;;;14.50;99.90;;;;;;5090718;28;20200;-72
2023/08/22 05:48:48;;;;;;;0.82;0.82;;;14.60;99.90;;;;;;5093100;28;20237;-72
2023/08/22 05:51:14;;;;;;;0.43;0.43;;;14.60;99.90;;;;;;5092608;28;20196;-72
2023/08/22 05:53:39;;;;;;;0.40;0.40;;;14.60;99.90;;;;;;5092440;28;20241;-73
2023/08/22 05:56:05;;;;;;;0.40;0.40;;;14.60;99.90;;;;;;5092495;28;20188;-72
2023/08/22 05:58:31;;;;;;;0.40;0.40;;;14.70;99.90;;;;;;5092310;28;20226;-72
2023/08/22 06:00:57;;;;;;;0.40;0.40;;;14.70;99.90;;;;;;5092499;28;20221;-72
2023/08/22 06:03:23;;;;;;;0.40;0.40;;;14.70;99.90;;;;;;5073888;28;20228;-72
2023/08/22 06:05:48;;;;;;;0.63;0.63;;;14.70;99.90;;;;;;5092171;28;20192;-73
2023/08/22 06:08:14;;;;;;;0.50;0.50;;;14.70;99.90;;;;;;5092543;28;20195;-72
2023/08/22 06:10:43;;;;;;;1.08;0.90;;;14.70;99.90;;;;;;5092231;28;20680;-73
2023/08/22 06:13:09;;;;;;;0.40;0.40;;;14.80;99.90;;;;;;5092330;28;20662;-72
2023/08/22 06:15:35;;;;;;;0.47;0.47;;;14.80;99.90;;;;;;5091584;28;20200;-73
2023/08/22 06:18:01;;;;;;;0.52;0.52;;;14.80;99.90;;;;;;5092236;28;20196;-74
2023/08/22 06:20:26;;;;;;;0.52;0.52;;;14.80;99.90;;;;;;5092245;28;20184;-74
2023/08/22 06:22:52;;;;;;;0.40;0.40;;;14.80;99.90;;;;;;5092276;28;20198;-73
2023/08/22 06:25:18;;;;;;;0.35;0.35;;;14.90;99.90;;;;;;5092269;28;20200;-73
2023/08/22 06:27:43;;;;;;;0.40;0.40;;;14.90;99.90;;;;;;5092225;28;20188;-72
2023/08/22 06:30:11;;;;;;;0.40;0.40;;;15.00;99.90;;;;;;5092170;28;20682;-73
2023/08/22 06:32:36;;;;;;;0.57;0.57;;;15.10;99.90;;;;;;5091753;28;20192;-72
2023/08/22 06:35:03;;;;;;;0.45;0.45;;;15.10;99.90;;;;;;5089510;28;20329;-72
2023/08/22 06:37:29;;;;;;;0.40;0.40;;;15.20;99.90;;;;;;5071738;28;20283;-73
2023/08/22 06:39:55;;;;;;;0.52;0.40;;;15.20;99.90;;;;;;5072138;28;20220;-73
2023/08/22 06:42:24;;;;;;;0.40;0.40;;;15.20;99.90;;;;;;5082190;28;20203;-73
2023/08/22 06:44:49;;;;;;;0.30;0.30;;;15.30;99.90;;;;;;5092211;28;20187;-74
2023/08/22 06:47:15;;;;;;;0.70;0.70;;;15.40;99.90;;;;;;5091916;28;20723;-74
2023/08/22 06:49:41;;;;;;;0.60;0.60;;;15.50;99.90;;;;;;5092058;28;20192;-74
2023/08/22 06:52:10;;;;;;;2.65;0.70;;;15.50;99.90;;;;;;5092090;28;20249;-73
2023/08/22 06:54:35;;;;;;;0.50;0.50;;;15.60;99.90;;;;;;5091713;28;20279;-73
2023/08/22 06:57:08;;;;;;;0.50;0.50;;;15.60;99.90;;;;;;5091900;28;20295;-74
2023/08/22 06:59:34;;;;;;;0.88;0.57;;;15.70;99.90;;;;;;5073559;28;20279;-73
2023/08/22 07:01:59;;;;;;;0.30;0.30;;;15.70;99.90;;;;;;5083946;28;20304;-74
2023/08/22 07:04:25;;;;;;;0.77;0.77;;;15.80;99.90;;;;;;5071890;28;20682;-74
2023/08/22 07:06:51;;;;;;;0.40;0.40;;;15.90;99.90;;;;;;5071222;28;20211;-74
2023/08/22 07:09:17;;;;;;;0.65;0.65;;;15.90;99.90;;;;;;5071030;28;20220;-75
2023/08/22 07:11:42;;;;;;;0.30;0.30;;;15.90;99.90;;;;;;5071264;28;20200;-74
2023/08/22 07:14:08;;;;;;;0.40;0.40;;;15.90;99.90;;;;;;5071449;28;20572;-75
2023/08/22 07:16:34;;;;;;;0.30;0.30;;;16.00;99.90;;;;;;5071379;28;20209;-75
2023/08/22 07:19:00;;;;;;;0.30;0.30;;;16.00;99.90;;;;;;5053289;28;20217;-75
2023/08/22 07:21:26;;;;;;;0.50;0.50;;;16.00;99.90;;;;;;5069665;28;20209;-75
2023/08/22 07:23:52;;;;;;;1.23;0.40;;;16.10;99.90;;;;;;5071684;28;20654;-75
2023/08/22 07:26:17;;;;;;;0.30;0.30;;;16.10;99.90;;;;;;5073876;28;20247;-74
2023/08/22 07:28:43;;;;;;;0.50;0.50;;;16.20;99.90;;;;;;5074787;28;20197;-74
2023/08/22 07:31:09;;;;;;;0.30;0.30;;;16.20;99.90;;;;;;5074660;28;20185;-75
2023/08/22 07:33:34;;;;;;;0.30;0.30;;;16.30;99.90;;;;;;5055059;28;20205;-75
2023/08/22 07:36:01;;;;;;;0.60;0.60;;;16.30;99.90;;;;;;5037205;28;20284;-75
2023/08/22 07:38:30;;;;;;;0.57;0.57;;;16.30;99.90;;;;;;5061665;28;20208;-75
2023/08/22 07:40:55;;;;;;;0.73;0.65;;;16.40;99.90;;;;;;5057173;28;20287;-74
2023/08/22 07:43:21;;;;;;;0.30;0.30;;;16.50;99.90;;;;;;5074604;28;20276;-75
2023/08/22 07:45:47;;;;;;;0.50;0.50;;;16.60;99.90;;;;;;5074980;28;20221;-74
2023/08/22 07:48:13;;;;;;;0.30;0.30;;;16.60;99.90;;;;;;5057050;28;20197;-74
2023/08/22 07:50:38;;;;;;;1.65;1.15;;;16.60;99.90;;;;;;5074586;28;20596;-74
2023/08/22 07:53:06;;;;;;;0.40;0.40;;;16.70;99.90;;;;;;5074932;28;20207;-75
2023/08/22 07:55:32;;;;;;;0.47;0.47;;;16.80;99.90;;;;;;5074406;28;20276;-75
2023/08/22 07:57:57;;;;;;;0.60;0.60;;;16.90;99.90;;;;;;5074743;28;20287;-75
2023/08/22 08:00:23;;;;;;;0.32;0.32;;;16.90;99.90;;;;;;5074631;28;20185;-73
2023/08/22 08:02:49;;;;;;;2.05;0.40;;;17.00;99.90;;;;;;5088914;28;20224;-74
2023/08/22 08:05:15;;;;;;;0.40;0.40;;;17.20;99.90;;;;;;5094627;28;20184;-73
2023/08/22 08:07:41;;;;;;;0.60;0.60;;;17.30;99.90;;;;;;5094701;28;20195;-74
2023/08/22 08:10:08;;;;;;;0.90;0.60;;;17.30;99.90;;;;;;5093435;28;20265;-73
2023/08/22 08:12:33;;;;;;;0.50;0.50;;;17.40;99.90;;;;;;5093200;28;20200;-74
2023/08/22 08:15:03;;;;;;;0.50;0.50;;;17.30;99.90;;;;;;5091702;28;20185;-74
2023/08/22 08:17:28;;;;;;;0.30;0.30;;;17.30;99.90;;;;;;5074265;28;20216;-74
2023/08/22 08:19:54;;;;;;;0.38;0.38;;;17.40;99.90;;;;;;5056332;28;20193;-74
2023/08/22 08:22:29;;;;;;;0.30;0.30;;;17.30;99.90;;;;;;5074190;28;20193;-74
2023/08/22 08:24:55;;;;;;;0.40;0.40;;;17.50;99.90;;;;;;5074518;28;20195;-74
2023/08/22 08:27:21;;;;;;;0.30;0.30;;;17.70;99.90;;;;;;5073858;28;20242;-74
2023/08/22 08:29:53;;;;;;;0.30;0.30;;;17.90;99.90;;;;;;5055981;28;20208;-74
2023/08/22 08:32:19;;;;;;;0.65;0.43;;;18.10;99.90;;;;;;5045936;28;20232;-74
2023/08/22 08:34:44;;;;;;;18.63;0.82;;;18.00;99.90;;;;;;5061247;28;20606;-74
2023/08/22 08:37:10;;;;;;;0.28;0.28;;;18.20;99.90;;;;;;5073082;28;20204;-73
2023/08/22 08:39:43;;;;;;;0.20;0.20;;;18.40;99.90;;;;;;5073804;28;20196;-75
2023/08/22 08:42:13;;;;;;;0.40;0.40;;;18.70;99.90;;;;;;5073961;28;20635;-74
2023/08/22 08:44:39;;;;;;;0.35;0.35;;;18.90;99.90;;;;;;5072373;28;20611;-74
2023/08/22 08:47:10;;;;;;;0.30;0.30;;;19.00;99.90;;;;;;5073821;28;20250;-74
2023/08/22 08:49:37;;;;;;;0.25;0.25;;;19.10;99.90;;;;;;5073460;28;20197;-74
2023/08/22 08:52:05;;;;;;;1.17;0.52;;;19.10;99.90;;;;;;5073702;28;20181;-74
2023/08/22 08:54:34;;;;;;;0.20;0.20;;;19.40;99.90;;;;;;5073520;28;20216;-74
2023/08/22 08:57:00;;;;;;;0.20;0.20;;;19.80;99.90;;;;;;5073484;28;20201;-73
2023/08/22 08:59:27;;;;;;;0.20;0.20;;;19.80;99.90;;;;;;5072724;28;20274;-74
2023/08/22 09:01:54;;;;;;;0.20;0.20;;;20.10;99.90;;;;;;5055172;28;20305;-74
2023/08/22 09:04:23;;;;;;;0.30;0.30;;;20.40;99.90;;;;;;5073256;28;20425;-74
2023/08/22 09:06:52;;;;;;;0.35;0.35;;;20.50;99.90;;;;;;5055329;28;20197;-74
2023/08/22 09:09:17;;;;;;;0.20;0.20;;;20.80;99.90;;;;;;5073157;28;20204;-74
2023/08/22 09:11:50;;;;;;;0.22;0.22;;;21.00;99.90;;;;;;5073014;28;20189;-74
2023/08/22 09:14:20;;;;;;;0.20;0.20;;;21.10;99.90;;;;;;5055216;28;20323;-74
2023/08/22 09:17:02;;;;;;;0.20;0.20;;;21.20;99.90;;;;;;5073329;28;20263;-72
2023/08/22 09:19:34;;;;;;;0.20;0.20;;;21.50;99.90;;;;;;5071995;28;20193;-74
2023/08/22 09:22:05;;;;;;;0.30;0.30;;;21.70;99.90;;;;;;5073000;28;20189;-75
2023/08/22 09:24:32;;;;;;;0.32;0.32;;;21.70;99.90;;;;;;5072669;28;20201;-75
2023/08/22 09:27:03;;;;;;;0.65;0.63;;;21.80;99.90;;;;;;5054932;28;20659;-74
2023/08/22 09:29:30;;;;;;;0.25;0.25;;;22.20;99.90;;;;;;5037387;28;20212;-74
2023/08/22 09:32:06;;;;;;;0.10;0.10;;;22.50;99.90;;;;;;5063111;28;20182;-75
2023/08/22 09:34:34;;;;;;;0.30;0.30;;;22.70;99.90;;;;;;5035422;28;20266;-75
2023/08/22 09:37:00;;;;;;;0.30;0.30;;;22.90;99.90;;;;;;5052642;28;20255;-74
2023/08/22 09:39:26;;;;;;;0.30;0.30;;;22.90;99.90;;;;;;5052785;28;20193;-74
2023/08/22 09:41:56;;;;;;;0.20;0.20;;;22.80;99.90;;;;;;5052700;28;20190;-74
2023/08/22 09:44:27;;;;;;;0.28;0.28;;;22.70;99.90;;;;;;5052600;28;20220;-74
2023/08/22 09:46:58;;;;;;;0.30;0.30;;;22.60;99.90;;;;;;5051450;28;20543;-75
2023/08/22 09:49:27;;;;;;;0.20;0.20;;;22.50;99.90;;;;;;5033851;28;20221;-75
2023/08/22 09:51:53;;;;;;;2.85;0.60;;;22.60;99.90;;;;;;5034754;28;20286;-74
2023/08/22 09:54:19;;;;;;;0.28;0.28;;;22.70;99.90;;;;;;5034617;28;20209;-74
2023/08/22 09:56:46;;;;;;;0.45;0.45;;;22.90;99.90;;;;;;5052269;28;20220;-75
2023/08/22 09:59:15;;;;;;;0.30;0.30;;;23.20;99.90;;;;;;5052431;28;20657;-74
2023/08/22 10:01:42;;;;;;;0.35;0.20;;;23.50;99.90;;;;;;5057109;28;20225;-74
2023/08/22 10:04:09;;;;;;;0.20;0.20;;;23.70;99.90;;;;;;5072427;28;20542;-75
2023/08/22 10:06:36;;;;;;;0.35;0.30;;;23.50;99.90;;;;;;5072144;28;20569;-74
2023/08/22 10:09:12;;;;;;;0.20;0.20;;;23.40;99.90;;;;;;5087728;28;20215;-74
2023/08/22 10:11:43;;;;;;;0.20;0.20;;;23.00;99.90;;;;;;5074245;28;20207;-74
2023/08/22 10:14:23;;;;;;;0.30;0.30;;;22.70;99.90;;;;;;5092545;28;20558;-74
2023/08/22 10:16:49;;;;;;;0.20;0.20;;;22.40;99.90;;;;;;5074080;28;20203;-74
2023/08/22 10:19:16;;;;;;;0.20;0.20;;;22.40;99.90;;;;;;5092520;28;20188;-74
2023/08/22 10:21:46;;;;;;;0.20;0.20;;;22.60;99.90;;;;;;5092156;28;20655;-74
2023/08/22 10:24:30;;;;;;;0.52;0.45;;;22.60;99.90;;;;;;5092476;28;20644;-74
2023/08/22 10:27:01;;;;;;;0.20;0.20;;;22.70;99.90;;;;;;5092314;28;20200;-74
2023/08/22 10:29:33;;;;;;;0.20;0.20;;;22.70;99.90;;;;;;5091962;28;20192;-75
2023/08/22 10:32:02;;;;;;;0.40;0.32;;;22.60;99.90;;;;;;5083675;28;20197;-74
2023/08/22 10:34:34;;;;;;;2.63;0.52;;;22.50;99.90;;;;;;5072289;28;20237;-74
2023/08/22 10:37:03;;;;;;;0.22;0.22;;;22.50;99.90;;;;;;5071890;28;20208;-74
2023/08/22 10:39:41;;;;;;;0.25;0.25;;;22.10;99.90;;;;;;5072248;28;20234;-74
2023/08/22 10:42:28;;;;;;;0.28;0.28;;;21.90;99.90;;;;;;5072079;28;20196;-74
2023/08/22 10:44:58;;;;;;;0.20;0.20;;;21.90;99.90;;;;;;5072037;28;20193;-75
2023/08/22 10:47:30;;;;;;;0.17;0.17;;;22.20;99.90;;;;;;5071972;28;20277;-75
2023/08/22 10:50:00;;;;;;;0.40;0.30;;;22.40;99.90;;;;;;5072095;28;20219;-74
2023/08/22 10:52:33;;;;;;;0.20;0.20;;;22.60;99.90;;;;;;5071689;28;20621;-75
2023/08/22 10:55:08;;;;;;;0.40;0.40;;;22.70;99.90;;;;;;5071839;28;20201;-74
2023/08/22 10:57:36;;;;;;;0.75;0.30;;;22.40;99.90;;;;;;5071800;28;20232;-74
2023/08/22 11:00:18;;;;;;;0.20;0.20;;;22.20;99.90;;;;;;5054080;28;20189;-75
2023/08/22 11:02:45;;;;;;;0.32;0.30;;;22.20;99.90;;;;;;5075494;28;20269;-75
2023/08/22 11:05:13;;;;;;;0.20;0.20;;;22.40;99.90;;;;;;5090273;28;20212;-75
2023/08/22 11:07:46;;;;;;;0.20;0.20;;;22.50;99.90;;;;;;5095723;28;20685;-74
2023/08/22 11:10:16;;;;;;;0.20;0.20;;;22.80;99.90;;;;;;5077605;28;20204;-74
2023/08/22 11:12:43;;;;;;;0.20;0.20;;;23.00;99.90;;;;;;5095722;28;20560;-75
2023/08/22 11:15:10;;;;;;;0.25;0.25;;;23.20;99.90;;;;;;5095902;28;20211;-75
2023/08/22 11:17:43;;;;;;;0.10;0.10;;;23.50;99.90;;;;;;5095558;28;20253;-75
2023/08/22 11:20:15;;;;;;;0.20;0.20;;;23.60;99.90;;;;;;5077473;28;20196;-75
2023/08/22 11:22:42;;;;;;;0.20;0.20;;;23.50;99.90;;;;;;5095521;28;20188;-75
2023/08/22 11:25:09;;;;;;;0.25;0.25;;;23.80;99.90;;;;;;5077603;28;20207;-75
2023/08/22 11:27:42;;;;;;;0.35;0.35;;;24.40;99.90;;;;;;5095251;28;20207;-75
2023/08/22 11:30:09;;;;;;;0.30;0.30;;;24.40;99.90;;;;;;5095502;28;20219;-75
2023/08/22 11:32:37;;;;;;;1.77;0.80;;;24.80;99.90;;;;;;5082823;28;20666;-75
2023/08/22 11:35:07;;;;;;;0.30;0.30;;;25.10;99.90;;;;;;5073809;28;20193;-75
2023/08/22 11:37:37;;;;;;;0.28;0.28;;;25.10;99.90;;;;;;5078214;28;20200;-75
2023/08/22 11:40:05;;;;;;;0.20;0.20;;;25.30;99.90;;;;;;5077286;28;20592;-76
2023/08/22 11:42:33;;;;;;;0.20;0.20;;;25.00;99.90;;;;;;5095020;28;20188;-75
2023/08/22 11:45:08;;;;;;;0.20;0.20;;;24.70;99.90;;;;;;5095313;28;20192;-75
2023/08/22 11:47:38;;;;;;;0.10;0.10;;;24.80;99.90;;;;;;5095085;28;20702;-75
2023/08/22 11:50:05;;;;;;;0.20;0.20;;;25.10;99.90;;;;;;5095176;28;20192;-76
2023/08/22 11:52:32;;;;;;;0.50;0.40;;;25.00;99.90;;;;;;5094913;28;20265;-75
2023/08/22 11:55:07;;;;;;;0.10;0.10;;;25.00;99.90;;;;;;5095184;28;20242;-76
2023/08/22 11:57:41;;;;;;;0.35;0.35;;;25.20;99.90;;;;;;5094795;28;20206;-75
2023/08/22 12:00:10;;;;;;;0.20;0.20;;;25.50;99.90;;;;;;5094855;28;20196;-75
2023/08/22 12:02:37;;;;;;;0.20;0.20;;;25.60;99.90;;;;;;5094565;28;20564;-76
2023/08/22 12:05:03;;;;;;;0.10;0.10;;;25.40;99.90;;;;;;5094760;28;20246;-76
2023/08/22 12:07:41;;;;;;;0.10;0.10;;;25.20;99.90;;;;;;5094733;28;20562;-75
2023/08/22 12:10:09;;;;;;;3.30;0.80;;;25.30;99.90;;;;;;5094965;28;20261;-75
2023/08/22 12:12:34;;;;;;;0.15;0.15;;;25.10;99.90;;;;;;5093439;28;20249;-75
2023/08/22 12:15:00;;;;;;;0.20;0.20;;;24.80;99.90;;;;;;5094558;28;20192;-76
2023/08/22 12:17:26;;;;;;;0.10;0.10;;;25.00;99.90;;;;;;5094108;28;20667;-76
2023/08/22 12:19:52;;;;;;;0.30;0.30;;;24.90;99.90;;;;;;5076444;28;20224;-76
2023/08/22 12:22:18;;;;;;;0.25;0.25;;;24.90;99.90;;;;;;5094622;28;20195;-75
2023/08/22 12:24:45;;;;;;;0.10;0.10;;;24.80;99.90;;;;;;5094204;28;20659;-75
2023/08/22 12:27:11;;;;;;;0.10;0.10;;;24.40;99.90;;;;;;5094471;28;20286;-75
2023/08/22 12:29:39;;;;;;;0.10;0.10;;;24.50;99.90;;;;;;5094183;28;20192;-76
2023/08/22 12:32:05;;;;;;;0.13;0.13;;;24.60;99.90;;;;;;5085905;28;20188;-75
2023/08/22 12:34:31;;;;;;;0.10;0.10;;;24.50;99.90;;;;;;5074162;28;20192;-76
2023/08/22 12:36:57;;;;;;;0.10;0.10;;;24.70;99.90;;;;;;5074205;28;20300;-76
2023/08/22 12:39:22;;;;;;;0.65;0.47;;;25.30;99.90;;;;;;5073764;28;20267;-76
2023/08/22 12:41:48;;;;;;;0.10;0.10;;;25.80;99.90;;;;;;5073857;28;20769;-76
2023/08/22 12:44:14;;;;;;;1.30;0.32;;;25.90;99.90;;;;;;5074175;28;20185;-76
2023/08/22 12:46:44;;;;;;;0.10;0.10;;;26.10;99.90;;;;;;5073831;28;20201;-74
2023/08/22 12:49:09;;;;;;;0.10;0.10;;;25.90;99.90;;;;;;5055692;28;20244;-75